KDYS/DYS METAR and TAF weather

Enter ICAO airport designator
Station Type Date Time Source
KDYS METAR 2020/10/29 16:56 UTC NOAA

KDYS 291656Z AUTO 33019G25KT 10SM BKN026 11/03 A3021 RMK AO2 BKN V OVC SLP228 T01130028 $


Station Type Date Time Source
KDYS Decoded METAR 2020/10/29 16:56 UTC NOAA

Abilene, Dyess Air Force Base, TX, United States (KDYS) 32-25-12N 099-51-25W
Oct 29, 2020 - 12:56 PM EDT / 2020.10.29 1656 UTC
Wind: from the NNW (330 degrees) at 22 MPH (19 KT) gusting to 29 MPH (25 KT):0
Visibility: 10 mile(s):0
Sky conditions: mostly cloudy
Temperature: 52.3 F (11.3 C)
Dew Point: 37.0 F (2.8 C)
Relative Humidity: 55%
Pressure (altimeter): 30.21 in. Hg (1023 hPa)
ob: KDYS 291656Z AUTO 33019G25KT 10SM BKN026 11/03 A3021 RMK AO2 BKN V OVC SLP228 T01130028
cycle: 17

Station Type Date Time Source
KDYS TAF 2020/10/29 16:18 UTC NOAA

TAF KDYS 291600Z 2916/3022 34015G25KT 9999 BKN025 QNH3017INS
BECMG 2919/2920 35015G25KT 9999 SCT025 QNH3017INS
BECMG 2920/2921 35010G15KT 9999 SCT030 QNH3017INS
BECMG 2923/2924 35006KT 9999 SKC QNH3020INS
BECMG 3002/3003 VRB06KT 9999 SKC QNH3023INS
BECMG 3015/3016 18006KT 9999 SKC QNH3018INS TX16/2921Z TN01/3011Z

Example: see airport list